Decoded Metar for KAMN (ALMA in MI, USA) (IATA:AMN) | Meteo·Mobile Aviation Weather
aviador You're here:

KAMN Decoded Metar

ALMA in MI, USA
Report Time2019-03-21 15:16:00
UTC Time2019-03-21 15:32:56
Flight Rules lifr LIFR
Wind310° at 03 kt
W.Decomp.*RWY 36: 2.1 kt HW 2.1 kt LCW
RWY 27: 2.1 kt HW 2.1 kt RCW
W.Rank310° ranks 18
Current wind is below 310° avg. (7.2)
Visibility6437 m
Phenomena:Mist
Clouds:Overcast 004 Hf
Expected CloudBase > 400 ft AGL from Temp-Dew spread
Ceiling400 ft
Temp02°C (ISA -12)
Dew Point01°C (93% RH)
AAT-0.9°C
QNH1014 hPa
Density Alt-584 ft
Elevation755 ft
Report Wrong Elevation
Raw Report
KAMN 211516Z AUTO 31003KT 4SM BR OVC004 02/01 A2995 RMK AO2
T00150010=

Extra information for KAMN:More info

Metar Taf Metar & Taf Last 4 Metars F.Rules Stats Wind Profile Meteogram Temp Stats Airport Information Weather charts Add Link Nearby VenuesMetar ALERT Operation Metar Decoded Social comments

AIRNAV info for KAMN